createdAt,value
2023-02-13T00:01:55.463Z,10.60
2023-02-13T00:04:24.167Z,9.60
2023-02-13T00:06:54.784Z,10.20
2023-02-13T00:09:23.402Z,11.70
2023-02-13T00:11:52.312Z,11.10
2023-02-13T00:14:21.649Z,10.70
2023-02-13T00:16:50.760Z,10.30
2023-02-13T00:19:20.428Z,9.30
2023-02-13T00:21:49.215Z,10.70
2023-02-13T00:24:17.854Z,10.80
2023-02-13T00:26:47.405Z,10.60
2023-02-13T00:29:16.550Z,11.20
2023-02-13T00:31:47.790Z,10.20
2023-02-13T00:34:18.913Z,10.90
2023-02-13T00:36:47.652Z,11.00
2023-02-13T00:39:16.630Z,11.20
2023-02-13T00:41:45.088Z,11.30
2023-02-13T00:44:13.645Z,10.40
2023-02-13T00:46:42.467Z,10.40
2023-02-13T00:49:11.101Z,10.30
2023-02-13T00:51:39.464Z,11.00
2023-02-13T00:54:07.892Z,10.80
2023-02-13T00:56:36.441Z,12.10
2023-02-13T00:59:05.063Z,10.90
2023-02-13T01:01:34.101Z,10.90
2023-02-13T01:04:02.714Z,10.80
2023-02-13T01:06:31.280Z,11.70
2023-02-13T01:09:00.037Z,11.20
2023-02-13T01:11:28.503Z,11.50
2023-02-13T01:13:57.045Z,11.00
2023-02-13T01:16:25.624Z,10.60
2023-02-13T01:18:54.454Z,10.60
2023-02-13T01:21:24.318Z,10.90
2023-02-13T01:23:52.760Z,11.60
2023-02-13T01:26:24.114Z,11.70
2023-02-13T01:28:55.120Z,10.40
2023-02-13T01:31:23.730Z,9.80
2023-02-13T01:33:52.491Z,11.20
2023-02-13T01:36:21.024Z,10.50
2023-02-13T01:38:52.962Z,11.00
2023-02-13T01:41:22.272Z,10.60
2023-02-13T01:43:53.966Z,11.30
2023-02-13T01:46:37.521Z,10.70
2023-02-13T01:49:14.069Z,11.00
2023-02-13T01:51:43.833Z,10.80
2023-02-13T01:54:33.718Z,12.00
2023-02-13T01:57:14.872Z,12.00
2023-02-13T02:00:00.800Z,11.80
2023-02-13T02:02:32.373Z,10.10
2023-02-13T02:05:03.051Z,10.40
2023-02-13T02:07:32.288Z,11.50
2023-02-13T02:10:05.823Z,10.50
2023-02-13T02:12:58.723Z,10.60
2023-02-13T02:15:27.677Z,10.00
2023-02-13T02:17:56.159Z,10.60
2023-02-13T02:20:47.113Z,9.90
2023-02-13T02:23:27.836Z,9.90
2023-02-13T02:26:08.369Z,10.40
2023-02-13T02:28:39.846Z,10.90
2023-02-13T02:31:56.185Z,9.80
2023-02-13T02:34:37.550Z,10.00
2023-02-13T02:37:37.449Z,9.40
2023-02-13T02:40:29.763Z,9.50
2023-02-13T02:43:29.383Z,9.60
2023-02-13T02:46:31.918Z,9.80
2023-02-13T02:49:32.487Z,9.80
2023-02-13T02:55:00.587Z,9.50
2023-02-13T02:57:51.760Z,10.00
2023-02-13T03:00:43.316Z,10.50
2023-02-13T03:03:41.139Z,8.80
2023-02-13T03:06:32.681Z,9.60
2023-02-13T03:09:23.326Z,9.10
2023-02-13T03:14:42.967Z,10.30
2023-02-13T03:17:33.685Z,10.00
2023-02-13T03:20:20.852Z,9.50
2023-02-13T03:22:55.425Z,9.80
2023-02-13T03:25:49.552Z,9.80
2023-02-13T03:28:45.851Z,9.90
2023-02-13T03:31:29.789Z,10.00
2023-02-13T03:34:04.188Z,10.20
2023-02-13T03:37:05.990Z,9.60
2023-02-13T03:40:00.887Z,9.10
2023-02-13T03:42:55.420Z,10.90
2023-02-13T03:45:54.590Z,10.00
2023-02-13T03:48:51.748Z,10.60
2023-02-13T03:51:43.629Z,10.20
2023-02-13T03:54:52.762Z,9.80
2023-02-13T03:57:42.716Z,11.10
2023-02-13T04:00:14.880Z,10.30
2023-02-13T04:03:06.174Z,10.70
2023-02-13T04:05:41.973Z,10.80
2023-02-13T04:08:11.191Z,11.50
2023-02-13T04:10:50.722Z,9.70
2023-02-13T04:13:35.543Z,10.80
2023-02-13T04:16:11.924Z,10.50
2023-02-13T04:18:40.419Z,11.10
2023-02-13T04:21:08.947Z,10.10
2023-02-13T04:23:37.447Z,9.70
2023-02-13T04:26:17.638Z,9.90
2023-02-13T04:28:46.219Z,10.50
2023-02-13T04:31:15.808Z,11.10
2023-02-13T04:33:44.626Z,10.80
2023-02-13T04:36:12.990Z,10.50
2023-02-13T04:38:41.418Z,10.30
2023-02-13T04:41:17.897Z,11.10
2023-02-13T04:43:46.532Z,10.00
2023-02-13T04:46:15.269Z,12.00
2023-02-13T04:48:44.065Z,11.30
2023-02-13T04:51:12.558Z,10.70
2023-02-13T04:53:41.147Z,11.10
2023-02-13T04:56:09.851Z,11.10
2023-02-13T04:58:38.270Z,12.10
2023-02-13T05:01:17.576Z,12.60
2023-02-13T05:03:46.446Z,11.90
2023-02-13T05:06:15.232Z,11.50
2023-02-13T05:08:43.737Z,11.60
2023-02-13T05:11:12.252Z,12.00
2023-02-13T05:13:40.883Z,11.20
2023-02-13T05:16:09.421Z,12.60
2023-02-13T05:18:38.113Z,12.70
2023-02-13T05:21:25.042Z,12.40
2023-02-13T05:23:53.610Z,11.40
2023-02-13T05:26:22.039Z,12.50
2023-02-13T05:29:09.052Z,12.20
2023-02-13T05:31:37.515Z,11.30
2023-02-13T05:34:06.097Z,11.80
2023-02-13T05:36:34.741Z,10.70
2023-02-13T05:39:03.642Z,10.90
2023-02-13T05:41:32.186Z,11.30
2023-02-13T05:44:00.918Z,11.50
2023-02-13T05:46:29.553Z,11.00
2023-02-13T05:48:58.082Z,11.10
2023-02-13T05:51:26.698Z,10.20
2023-02-13T05:53:55.205Z,10.80
2023-02-13T05:56:23.780Z,10.60
2023-02-13T05:58:54.149Z,10.80
2023-02-13T06:01:24.087Z,10.80
2023-02-13T06:03:52.892Z,10.80
2023-02-13T06:06:23.068Z,10.90
2023-02-13T06:08:51.961Z,10.70
2023-02-13T06:11:21.210Z,10.60
2023-02-13T06:13:49.616Z,11.00
2023-02-13T06:16:18.220Z,10.50
2023-02-13T06:18:46.648Z,10.90
2023-02-13T06:21:15.576Z,10.90
2023-02-13T06:23:44.060Z,10.00
2023-02-13T06:26:12.922Z,10.70
2023-02-13T06:28:41.451Z,11.80
2023-02-13T06:31:10.373Z,11.60
2023-02-13T06:33:38.797Z,12.20
2023-02-13T06:36:08.246Z,11.80
2023-02-13T06:38:36.864Z,11.50
2023-02-13T06:41:06.376Z,10.60
2023-02-13T06:43:34.880Z,11.40
2023-02-13T06:46:07.430Z,11.60
2023-02-13T06:48:36.011Z,10.10
2023-02-13T06:51:04.674Z,9.90
2023-02-13T06:53:33.826Z,10.10
2023-02-13T06:56:06.496Z,9.20
2023-02-13T06:58:35.151Z,9.50
2023-02-13T07:01:06.307Z,9.90
2023-02-13T07:03:34.884Z,9.60
2023-02-13T07:06:03.443Z,9.50
2023-02-13T07:08:32.039Z,9.30
2023-02-13T07:11:00.761Z,9.30
2023-02-13T07:13:29.378Z,9.80
2023-02-13T07:16:02.116Z,9.50
2023-02-13T07:18:32.600Z,8.50
2023-02-13T07:21:02.490Z,8.90
2023-02-13T07:23:31.681Z,8.70
2023-02-13T07:26:02.278Z,8.60
2023-02-13T07:28:32.760Z,8.90
2023-02-13T07:31:06.440Z,10.10
2023-02-13T07:33:36.861Z,8.80
2023-02-13T07:36:06.586Z,8.90
2023-02-13T07:38:36.115Z,8.70
2023-02-13T07:41:05.320Z,9.40
2023-02-13T07:43:38.705Z,9.30
2023-02-13T07:46:07.571Z,8.70
2023-02-13T07:52:58.044Z,8.40
2023-02-13T07:55:31.623Z,8.80
2023-02-13T07:58:04.205Z,8.00
2023-02-13T08:00:33.075Z,6.90
2023-02-13T08:03:05.449Z,6.30
2023-02-13T08:05:35.225Z,6.20
2023-02-13T08:08:04.461Z,6.70
2023-02-13T08:10:51.635Z,6.60
2023-02-13T08:13:20.265Z,5.80
2023-02-13T08:15:49.186Z,6.30
2023-02-13T08:18:19.709Z,6.50
2023-02-13T08:20:48.857Z,6.40
2023-02-13T08:23:17.493Z,6.70
2023-02-13T08:25:47.980Z,5.70
2023-02-13T08:28:17.628Z,5.40
2023-02-13T08:30:46.299Z,5.40
2023-02-13T08:33:14.705Z,5.70
2023-02-13T08:35:43.461Z,5.60
2023-02-13T08:38:12.524Z,6.60
2023-02-13T08:40:41.093Z,5.30
2023-02-13T08:43:09.561Z,5.30
2023-02-13T08:45:38.714Z,5.10
2023-02-13T08:48:07.948Z,4.90
2023-02-13T08:50:37.532Z,4.30
2023-02-13T08:53:06.789Z,4.80
2023-02-13T08:55:35.293Z,5.20
2023-02-13T08:58:05.281Z,5.30
2023-02-13T09:00:34.258Z,5.40
2023-02-13T09:03:04.739Z,6.20
2023-02-13T09:05:35.603Z,6.70
2023-02-13T09:08:06.146Z,5.70
2023-02-13T09:10:37.542Z,6.10
2023-02-13T09:13:08.080Z,6.10
2023-02-13T09:15:41.736Z,5.30
2023-02-13T09:18:11.771Z,5.80
2023-02-13T09:20:43.065Z,5.00
2023-02-13T09:23:12.569Z,5.00
2023-02-13T09:25:42.303Z,4.60
2023-02-13T09:28:13.969Z,5.20
2023-02-13T09:30:44.208Z,5.10
2023-02-13T09:33:13.324Z,4.80
2023-02-13T09:35:42.652Z,4.90
2023-02-13T09:38:11.581Z,5.70
2023-02-13T09:40:53.875Z,6.20
2023-02-13T09:43:29.580Z,5.40
2023-02-13T09:46:05.549Z,5.40
2023-02-13T09:48:39.928Z,5.00
2023-02-13T09:51:16.528Z,5.80
2023-02-13T09:53:56.094Z,6.00
2023-02-13T09:56:38.753Z,5.80
2023-02-13T09:59:15.812Z,5.40
2023-02-13T10:01:51.585Z,6.40
2023-02-13T10:04:30.894Z,6.20
2023-02-13T10:07:20.959Z,6.10
2023-02-13T10:09:54.646Z,5.90
2023-02-13T10:12:28.939Z,6.90
2023-02-13T10:15:17.956Z,6.20
2023-02-13T10:18:00.106Z,5.70
2023-02-13T10:20:43.893Z,6.60
2023-02-13T10:23:31.143Z,7.10
2023-02-13T10:26:06.758Z,6.30
2023-02-13T10:28:41.169Z,6.10
2023-02-13T10:31:18.495Z,6.50
2023-02-13T10:33:55.459Z,6.50
2023-02-13T10:36:41.975Z,6.70
2023-02-13T10:39:32.250Z,6.60
2023-02-13T10:42:16.726Z,6.00
2023-02-13T10:45:15.531Z,7.10
2023-02-13T10:48:01.593Z,6.30
2023-02-13T10:50:57.556Z,5.70
2023-02-13T10:53:56.087Z,5.40
2023-02-13T10:56:31.985Z,6.00
2023-02-13T10:59:29.753Z,6.60
2023-02-13T11:02:27.408Z,6.70
2023-02-13T11:05:03.356Z,7.00
2023-02-13T11:07:32.774Z,6.90
2023-02-13T11:10:17.990Z,6.40
2023-02-13T11:12:47.626Z,6.90
2023-02-13T11:15:24.626Z,7.00
2023-02-13T11:17:59.826Z,7.60
2023-02-13T11:20:46.980Z,7.60
2023-02-13T11:23:24.921Z,7.70
2023-02-13T11:26:05.450Z,6.90
2023-02-13T11:29:02.348Z,7.00
2023-02-13T11:31:45.482Z,6.60
2023-02-13T11:34:30.205Z,7.10
2023-02-13T11:37:20.568Z,7.00
2023-02-13T11:39:52.660Z,6.30
2023-02-13T11:42:28.901Z,6.90
2023-02-13T11:45:08.134Z,8.00
2023-02-13T11:47:45.720Z,8.00
2023-02-13T11:50:33.294Z,7.40
2023-02-13T11:53:07.885Z,7.00
2023-02-13T11:55:42.934Z,7.00
2023-02-13T11:58:11.544Z,7.50
2023-02-13T12:00:41.827Z,7.80
2023-02-13T12:06:18.680Z,6.40
2023-02-13T12:08:50.758Z,7.50
2023-02-13T12:11:29.964Z,7.10
2023-02-13T12:13:59.018Z,6.80
2023-02-13T12:17:03.818Z,7.20
2023-02-13T12:19:47.261Z,7.10
2023-02-13T12:22:50.004Z,6.70
2023-02-13T12:25:24.827Z,7.10
2023-02-13T12:28:40.293Z,7.70
2023-02-13T12:31:40.603Z,7.00
2023-02-13T12:34:34.038Z,7.20
2023-02-13T12:37:33.747Z,6.70
2023-02-13T12:40:21.090Z,7.10
2023-02-13T12:43:14.882Z,7.10
2023-02-13T12:45:54.607Z,7.80
2023-02-13T12:48:45.067Z,7.00
2023-02-13T12:51:26.197Z,7.60
2023-02-13T12:54:27.437Z,8.10
2023-02-13T12:57:14.572Z,7.60
2023-02-13T13:00:01.846Z,7.40
2023-02-13T13:02:49.224Z,7.20
2023-02-13T13:06:10.964Z,7.30
2023-02-13T13:08:59.105Z,8.30
2023-02-13T13:11:43.219Z,7.50
2023-02-13T13:14:39.198Z,7.70
2023-02-13T13:17:26.828Z,7.30
2023-02-13T13:20:35.848Z,7.40
2023-02-13T13:23:15.324Z,7.90
2023-02-13T13:25:59.648Z,8.10
2023-02-13T13:28:39.924Z,7.90
2023-02-13T13:31:11.157Z,7.80
2023-02-13T13:33:44.489Z,7.60
2023-02-13T13:36:31.314Z,8.90
2023-02-13T13:39:06.148Z,8.00
2023-02-13T13:42:14.531Z,7.60
2023-02-13T13:45:08.302Z,6.80
2023-02-13T13:47:45.159Z,7.00
2023-02-13T13:50:26.569Z,7.30
2023-02-13T13:53:22.390Z,7.70
2023-02-13T13:56:01.667Z,7.90
2023-02-13T13:58:51.337Z,7.50
2023-02-13T14:01:23.861Z,7.50
2023-02-13T14:04:01.708Z,8.20
2023-02-13T14:06:48.879Z,8.40
2023-02-13T14:09:27.859Z,7.70
2023-02-13T14:11:59.081Z,8.00
2023-02-13T14:14:27.928Z,7.30
2023-02-13T14:17:08.500Z,7.70
2023-02-13T14:22:28.397Z,7.60
2023-02-13T14:25:08.159Z,7.30
2023-02-13T14:27:43.650Z,6.90
2023-02-13T14:30:34.416Z,6.80
2023-02-13T14:33:09.058Z,7.20
2023-02-13T14:35:39.084Z,7.30
2023-02-13T14:38:24.033Z,7.20
2023-02-13T14:40:54.236Z,7.10
2023-02-13T14:43:38.077Z,6.80
2023-02-13T14:46:12.616Z,6.50
2023-02-13T14:48:53.927Z,6.90
2023-02-13T14:51:31.197Z,7.50
2023-02-13T14:54:10.375Z,7.80
2023-02-13T14:56:39.603Z,7.00
2023-02-13T14:59:16.173Z,7.30
2023-02-13T15:01:52.729Z,7.80
2023-02-13T15:04:34.436Z,7.50
2023-02-13T15:07:05.825Z,7.00
2023-02-13T15:09:41.133Z,7.50
2023-02-13T15:12:34.336Z,6.60
2023-02-13T15:15:22.742Z,7.40
2023-02-13T15:17:54.812Z,7.50
2023-02-13T15:20:34.770Z,7.20
2023-02-13T15:23:07.092Z,7.00
2023-02-13T15:25:38.499Z,7.30
2023-02-13T15:28:17.839Z,7.00
2023-02-13T15:31:01.832Z,7.80
2023-02-13T15:33:46.766Z,6.80
2023-02-13T15:36:19.628Z,6.00
2023-02-13T15:38:48.755Z,5.70
2023-02-13T15:41:22.062Z,6.40
2023-02-13T15:43:56.960Z,6.60
2023-02-13T15:46:27.283Z,6.40
2023-02-13T15:48:59.212Z,5.80
2023-02-13T15:51:31.769Z,5.10
2023-02-13T15:54:06.169Z,6.00
2023-02-13T15:56:35.981Z,6.40
2023-02-13T15:59:04.577Z,6.70
2023-02-13T16:01:35.704Z,6.30
2023-02-13T16:04:07.781Z,6.40
2023-02-13T16:06:36.856Z,6.40
2023-02-13T16:09:06.454Z,6.40
2023-02-13T16:11:41.561Z,6.60
2023-02-13T16:14:18.760Z,5.90
2023-02-13T16:16:55.774Z,5.70
2023-02-13T16:19:30.434Z,5.80
2023-02-13T16:22:03.902Z,6.60
2023-02-13T16:24:32.666Z,6.60
2023-02-13T16:27:01.639Z,7.00
2023-02-13T16:29:30.603Z,6.10
2023-02-13T16:32:07.955Z,6.80
2023-02-13T16:34:38.844Z,7.50
2023-02-13T16:37:33.739Z,7.00
2023-02-13T16:40:42.456Z,7.70
2023-02-13T16:43:42.151Z,6.60
2023-02-13T16:46:37.233Z,6.60
2023-02-13T16:49:12.410Z,7.40
2023-02-13T16:51:42.891Z,7.50
2023-02-13T16:56:55.120Z,7.20
2023-02-13T16:59:28.970Z,6.40
2023-02-13T17:02:41.136Z,6.20
2023-02-13T17:05:09.891Z,6.90
2023-02-13T17:07:54.856Z,7.00
2023-02-13T17:10:31.322Z,6.60
2023-02-13T17:13:13.557Z,6.20
2023-02-13T17:15:46.835Z,6.60
2023-02-13T17:18:15.712Z,6.50
2023-02-13T17:20:45.728Z,6.20
2023-02-13T17:23:21.464Z,6.00
2023-02-13T17:25:52.349Z,5.90
2023-02-13T17:28:27.348Z,5.70
2023-02-13T17:30:59.120Z,5.60
2023-02-13T17:33:31.044Z,5.60
2023-02-13T17:35:59.673Z,5.50
2023-02-13T17:38:28.532Z,5.70
2023-02-13T17:42:13.010Z,5.00
2023-02-13T17:44:41.687Z,5.10
2023-02-13T17:47:10.296Z,5.50
2023-02-13T17:49:48.188Z,5.40
2023-02-13T17:52:29.199Z,4.60
2023-02-13T17:54:57.888Z,5.00
2023-02-13T17:57:26.418Z,5.40
2023-02-13T17:59:55.838Z,5.00
2023-02-13T18:02:28.196Z,4.80
2023-02-13T18:04:56.983Z,4.90
2023-02-13T18:07:25.660Z,4.60
2023-02-13T18:09:54.358Z,4.70
2023-02-13T18:12:25.363Z,4.80
2023-02-13T18:14:54.326Z,5.20
2023-02-13T18:17:22.792Z,4.90
2023-02-13T18:19:51.275Z,5.20
2023-02-13T18:22:19.978Z,4.60
2023-02-13T18:24:48.902Z,4.80
2023-02-13T18:27:18.347Z,5.40
2023-02-13T18:29:46.948Z,5.20
2023-02-13T18:32:15.624Z,4.70
2023-02-13T18:34:44.352Z,5.10
2023-02-13T18:37:14.126Z,5.00
2023-02-13T18:39:42.698Z,5.20
2023-02-13T18:42:13.557Z,5.50
2023-02-13T18:44:42.267Z,5.90
2023-02-13T18:47:10.858Z,5.70
2023-02-13T18:49:39.391Z,5.90
2023-02-13T18:52:08.014Z,5.70
2023-02-13T18:54:39.678Z,5.40
2023-02-13T18:57:08.252Z,5.40
2023-02-13T18:59:36.790Z,6.60
2023-02-13T19:02:05.874Z,6.70
2023-02-13T19:04:36.225Z,6.00
2023-02-13T19:07:11.976Z,6.10
2023-02-13T19:09:42.342Z,6.10
2023-02-13T19:12:11.295Z,6.00
2023-02-13T19:14:40.674Z,6.50
2023-02-13T19:17:10.623Z,6.80
2023-02-13T19:19:39.771Z,6.60
2023-02-13T19:22:12.488Z,6.70
2023-02-13T19:24:41.959Z,7.60
2023-02-13T19:27:11.842Z,7.00
2023-02-13T19:29:42.203Z,6.50
2023-02-13T19:32:11.283Z,7.20
2023-02-13T19:34:41.337Z,7.50
2023-02-13T19:37:10.638Z,7.30
2023-02-13T19:39:42.489Z,7.00
2023-02-13T19:46:52.012Z,6.60
2023-02-13T19:49:23.828Z,6.60
2023-02-13T19:51:53.636Z,7.10
2023-02-13T19:54:26.315Z,5.60
2023-02-13T19:57:00.568Z,5.90
2023-02-13T19:59:29.717Z,7.00
2023-02-13T20:02:16.617Z,6.80
2023-02-13T20:05:02.355Z,6.40
2023-02-13T20:07:36.419Z,7.00
2023-02-13T20:10:30.839Z,6.30
2023-02-13T20:13:00.240Z,6.00
2023-02-13T20:15:50.170Z,6.10
2023-02-13T20:18:25.060Z,6.00
2023-02-13T20:20:56.776Z,6.00
2023-02-13T20:23:26.682Z,6.60
2023-02-13T20:26:08.094Z,7.70
2023-02-13T20:32:16.818Z,5.80
2023-02-13T20:35:08.383Z,4.90
2023-02-13T20:37:59.147Z,6.00
2023-02-13T20:40:50.064Z,6.30
2023-02-13T20:44:09.716Z,6.30
2023-02-13T20:46:39.984Z,6.70
2023-02-13T20:49:13.787Z,5.80
2023-02-13T20:52:04.897Z,5.90
2023-02-13T20:54:39.217Z,6.20
2023-02-13T20:57:08.539Z,6.50
2023-02-13T20:59:44.440Z,6.70
2023-02-13T21:02:24.980Z,6.00
2023-02-13T21:04:55.831Z,6.40
2023-02-13T21:07:31.738Z,6.20
2023-02-13T21:10:09.187Z,5.90
2023-02-13T21:12:47.970Z,6.30
2023-02-13T21:15:20.726Z,6.10
2023-02-13T21:17:59.491Z,6.40
2023-02-13T21:20:31.745Z,6.50
2023-02-13T21:23:03.780Z,7.30
2023-02-13T21:25:34.473Z,6.30
2023-02-13T21:30:32.559Z,5.80
2023-02-13T21:33:02.815Z,6.80
2023-02-13T21:35:31.946Z,6.50
2023-02-13T21:38:01.355Z,6.90
2023-02-13T21:40:36.443Z,6.80
2023-02-13T21:43:06.180Z,6.70
2023-02-13T21:45:39.034Z,6.90
2023-02-13T21:50:41.853Z,6.10
2023-02-13T21:53:11.614Z,5.80
2023-02-13T21:55:43.738Z,6.40
2023-02-13T21:58:13.560Z,6.50
2023-02-13T22:00:43.521Z,6.10
2023-02-13T22:03:14.367Z,6.30
2023-02-13T22:08:23.797Z,5.60
2023-02-13T22:11:00.173Z,7.10
2023-02-13T22:13:34.494Z,6.20
2023-02-13T22:16:20.137Z,5.90
2023-02-13T22:18:50.926Z,5.40
2023-02-13T22:21:25.601Z,5.70
2023-02-13T22:23:58.527Z,6.50
2023-02-13T22:26:33.252Z,6.50
2023-02-13T22:29:07.268Z,6.00
2023-02-13T22:31:42.391Z,6.30
2023-02-13T22:34:14.460Z,6.70
2023-02-13T22:36:44.746Z,6.20
2023-02-13T22:39:14.347Z,5.80
2023-02-13T22:41:45.976Z,5.90
2023-02-13T22:44:15.432Z,6.30
2023-02-13T22:46:45.782Z,6.60
2023-02-13T22:49:14.354Z,5.60
2023-02-13T22:51:43.143Z,5.30
2023-02-13T22:54:12.289Z,6.10
2023-02-13T22:56:40.758Z,6.20
2023-02-13T22:59:09.752Z,6.20
2023-02-13T23:01:38.318Z,5.80
2023-02-13T23:04:10.359Z,6.90
2023-02-13T23:06:44.191Z,5.80
2023-02-13T23:09:13.077Z,5.80
2023-02-13T23:12:00.272Z,6.00
2023-02-13T23:14:35.579Z,5.60
2023-02-13T23:17:36.684Z,7.10
2023-02-13T23:20:05.887Z,6.00
2023-02-13T23:22:35.946Z,5.90
2023-02-13T23:25:06.314Z,5.60
2023-02-13T23:27:35.910Z,6.10
2023-02-13T23:30:06.967Z,6.90
2023-02-13T23:32:35.647Z,6.40
2023-02-13T23:35:04.807Z,7.00
2023-02-13T23:37:33.810Z,7.10
2023-02-13T23:40:03.166Z,7.00
2023-02-13T23:42:31.962Z,6.40
2023-02-13T23:45:00.547Z,7.00
2023-02-13T23:47:30.073Z,7.00
2023-02-13T23:49:58.769Z,7.30
2023-02-13T23:52:27.462Z,7.00
2023-02-13T23:54:55.987Z,6.20
2023-02-13T23:57:24.597Z,6.80
2023-02-13T23:59:53.051Z,6.40
